sensor_id;sensor_type;location;lat;lon;timestamp;P1;durP1;ratioP1;P2;durP2;ratioP2
75892;SDS011;64572;50.950;3.676;2022-12-01T00:01:41;360.60;;;37.58;;
75892;SDS011;64572;50.950;3.676;2022-12-01T00:04:07;257.58;;;36.25;;
75892;SDS011;64572;50.950;3.676;2022-12-01T00:06:33;349.30;;;37.95;;
75892;SDS011;64572;50.950;3.676;2022-12-01T00:08:58;304.50;;;35.20;;
75892;SDS011;64572;50.950;3.676;2022-12-01T00:11:42;253.68;;;35.65;;
75892;SDS011;64572;50.950;3.676;2022-12-01T00:14:08;399.27;;;36.53;;
75892;SDS011;64572;50.950;3.676;2022-12-01T00:16:34;378.05;;;36.25;;
75892;SDS011;64572;50.950;3.676;2022-12-01T00:19:00;412.52;;;37.80;;
75892;SDS011;64572;50.950;3.676;2022-12-01T00:21:25;225.38;;;35.88;;
75892;SDS011;64572;50.950;3.676;2022-12-01T00:23:52;264.02;;;37.35;;
75892;SDS011;64572;50.950;3.676;2022-12-01T00:26:20;390.13;;;35.47;;
75892;SDS011;64572;50.950;3.676;2022-12-01T00:28:50;430.40;;;40.50;;
75892;SDS011;64572;50.950;3.676;2022-12-01T00:31:17;350.85;;;37.95;;
75892;SDS011;64572;50.950;3.676;2022-12-01T00:33:42;280.17;;;37.33;;
75892;SDS011;64572;50.950;3.676;2022-12-01T00:36:08;379.65;;;35.70;;
75892;SDS011;64572;50.950;3.676;2022-12-01T00:38:34;262.92;;;34.90;;
75892;SDS011;64572;50.950;3.676;2022-12-01T00:41:00;319.55;;;37.85;;
75892;SDS011;64572;50.950;3.676;2022-12-01T00:43:26;259.30;;;36.30;;
75892;SDS011;64572;50.950;3.676;2022-12-01T00:45:52;252.38;;;31.98;;
75892;SDS011;64572;50.950;3.676;2022-12-01T00:48:19;387.85;;;38.75;;
75892;SDS011;64572;50.950;3.676;2022-12-01T00:50:44;256.83;;;34.95;;
75892;SDS011;64572;50.950;3.676;2022-12-01T00:53:10;175.98;;;30.73;;
75892;SDS011;64572;50.950;3.676;2022-12-01T00:55:35;185.00;;;32.63;;
75892;SDS011;64572;50.950;3.676;2022-12-01T00:58:01;194.23;;;29.10;;
75892;SDS011;64572;50.950;3.676;2022-12-01T01:00:27;229.57;;;33.10;;
75892;SDS011;64572;50.950;3.676;2022-12-01T01:02:53;188.73;;;32.33;;
75892;SDS011;64572;50.950;3.676;2022-12-01T01:05:19;257.95;;;34.22;;
75892;SDS011;64572;50.950;3.676;2022-12-01T01:07:44;222.15;;;33.92;;
75892;SDS011;64572;50.950;3.676;2022-12-01T01:10:10;181.85;;;34.05;;
75892;SDS011;64572;50.950;3.676;2022-12-01T01:12:36;221.85;;;35.42;;
75892;SDS011;64572;50.950;3.676;2022-12-01T01:15:02;226.95;;;31.20;;
75892;SDS011;64572;50.950;3.676;2022-12-01T01:17:30;159.50;;;30.47;;
75892;SDS011;64572;50.950;3.676;2022-12-01T01:19:57;237.38;;;30.40;;
75892;SDS011;64572;50.950;3.676;2022-12-01T01:22:22;259.98;;;31.15;;
75892;SDS011;64572;50.950;3.676;2022-12-01T01:24:48;197.02;;;30.67;;
75892;SDS011;64572;50.950;3.676;2022-12-01T01:27:13;232.27;;;31.58;;
75892;SDS011;64572;50.950;3.676;2022-12-01T01:29:39;265.40;;;30.27;;
75892;SDS011;64572;50.950;3.676;2022-12-01T01:32:06;191.30;;;29.00;;
75892;SDS011;64572;50.950;3.676;2022-12-01T01:34:32;205.57;;;28.67;;
75892;SDS011;64572;50.950;3.676;2022-12-01T01:36:58;207.32;;;27.80;;
75892;SDS011;64572;50.950;3.676;2022-12-01T01:39:23;242.90;;;30.58;;
75892;SDS011;64572;50.950;3.676;2022-12-01T01:41:49;227.82;;;30.92;;
75892;SDS011;64572;50.950;3.676;2022-12-01T01:47:12;224.77;;;28.90;;
75892;SDS011;64572;50.950;3.676;2022-12-01T01:49:38;206.85;;;27.20;;
75892;SDS011;64572;50.950;3.676;2022-12-01T01:52:05;270.92;;;27.58;;
75892;SDS011;64572;50.950;3.676;2022-12-01T01:54:32;236.05;;;26.67;;
75892;SDS011;64572;50.950;3.676;2022-12-01T01:57:05;266.67;;;29.50;;
75892;SDS011;64572;50.950;3.676;2022-12-01T01:59:38;239.98;;;26.70;;
75892;SDS011;64572;50.950;3.676;2022-12-01T02:02:11;151.67;;;24.60;;
75892;SDS011;64572;50.950;3.676;2022-12-01T02:04:38;171.52;;;26.65;;
75892;SDS011;64572;50.950;3.676;2022-12-01T02:07:08;222.93;;;27.65;;
75892;SDS011;64572;50.950;3.676;2022-12-01T02:09:35;157.27;;;24.15;;
75892;SDS011;64572;50.950;3.676;2022-12-01T02:12:04;199.35;;;27.65;;
75892;SDS011;64572;50.950;3.676;2022-12-01T02:17:33;102.28;;;24.52;;
75892;SDS011;64572;50.950;3.676;2022-12-01T02:20:08;66.78;;;25.15;;
75892;SDS011;64572;50.950;3.676;2022-12-01T02:36:31;44.30;;;24.90;;
75892;SDS011;64572;50.950;3.676;2022-12-01T02:39:25;50.90;;;26.33;;
75892;SDS011;64572;50.950;3.676;2022-12-01T02:42:04;50.80;;;26.38;;
75892;SDS011;64572;50.950;3.676;2022-12-01T02:44:39;53.15;;;26.05;;
75892;SDS011;64572;50.950;3.676;2022-12-01T02:47:10;54.72;;;28.20;;
75892;SDS011;64572;50.950;3.676;2022-12-01T02:49:40;52.55;;;27.38;;
75892;SDS011;64572;50.950;3.676;2022-12-01T02:52:12;69.75;;;32.97;;
75892;SDS011;64572;50.950;3.676;2022-12-01T02:54:39;72.93;;;35.50;;
75892;SDS011;64572;50.950;3.676;2022-12-01T02:57:10;74.70;;;35.55;;
75892;SDS011;64572;50.950;3.676;2022-12-01T02:59:38;71.90;;;33.80;;
75892;SDS011;64572;50.950;3.676;2022-12-01T03:10:16;79.07;;;35.75;;
75892;SDS011;64572;50.950;3.676;2022-12-01T03:13:21;78.78;;;34.95;;
75892;SDS011;64572;50.950;3.676;2022-12-01T03:16:46;74.93;;;34.92;;
75892;SDS011;64572;50.950;3.676;2022-12-01T03:18:57;73.93;;;36.67;;
75892;SDS011;64572;50.950;3.676;2022-12-01T03:22:09;78.10;;;37.45;;
75892;SDS011;64572;50.950;3.676;2022-12-01T03:24:16;77.85;;;37.35;;
75892;SDS011;64572;50.950;3.676;2022-12-01T03:26:46;79.18;;;36.88;;
75892;SDS011;64572;50.950;3.676;2022-12-01T03:29:20;81.40;;;37.53;;
75892;SDS011;64572;50.950;3.676;2022-12-01T03:31:55;78.95;;;37.78;;
75892;SDS011;64572;50.950;3.676;2022-12-01T03:34:28;70.93;;;34.83;;
75892;SDS011;64572;50.950;3.676;2022-12-01T03:37:00;79.07;;;38.75;;
75892;SDS011;64572;50.950;3.676;2022-12-01T03:39:31;72.15;;;34.22;;
75892;SDS011;64572;50.950;3.676;2022-12-01T03:42:05;73.35;;;35.58;;
75892;SDS011;64572;50.950;3.676;2022-12-01T03:44:49;51.10;;;22.80;;
75892;SDS011;64572;50.950;3.676;2022-12-01T03:47:19;58.85;;;26.83;;
75892;SDS011;64572;50.950;3.676;2022-12-01T03:49:50;81.47;;;36.83;;
75892;SDS011;64572;50.950;3.676;2022-12-01T03:52:19;77.13;;;37.60;;
75892;SDS011;64572;50.950;3.676;2022-12-01T03:57:27;74.43;;;35.47;;
75892;SDS011;64572;50.950;3.676;2022-12-01T03:59:57;70.20;;;34.92;;
75892;SDS011;64572;50.950;3.676;2022-12-01T04:02:25;76.05;;;36.78;;
75892;SDS011;64572;50.950;3.676;2022-12-01T04:04:52;72.70;;;35.88;;
75892;SDS011;64572;50.950;3.676;2022-12-01T04:07:18;74.80;;;36.50;;
75892;SDS011;64572;50.950;3.676;2022-12-01T04:09:44;78.43;;;36.50;;
75892;SDS011;64572;50.950;3.676;2022-12-01T04:12:11;78.80;;;37.17;;
75892;SDS011;64572;50.950;3.676;2022-12-01T04:14:56;74.10;;;37.42;;
75892;SDS011;64572;50.950;3.676;2022-12-01T04:17:32;73.03;;;34.75;;
75892;SDS011;64572;50.950;3.676;2022-12-01T04:19:58;71.85;;;34.95;;
75892;SDS011;64572;50.950;3.676;2022-12-01T04:22:24;79.70;;;36.63;;
75892;SDS011;64572;50.950;3.676;2022-12-01T04:24:51;69.10;;;34.30;;
75892;SDS011;64572;50.950;3.676;2022-12-01T04:27:17;72.57;;;33.85;;
75892;SDS011;64572;50.950;3.676;2022-12-01T04:29:44;69.45;;;33.20;;
75892;SDS011;64572;50.950;3.676;2022-12-01T04:32:09;76.13;;;34.38;;
75892;SDS011;64572;50.950;3.676;2022-12-01T04:34:35;73.57;;;34.92;;
75892;SDS011;64572;50.950;3.676;2022-12-01T04:37:03;75.90;;;34.35;;
75892;SDS011;64572;50.950;3.676;2022-12-01T04:39:29;71.03;;;34.63;;
75892;SDS011;64572;50.950;3.676;2022-12-01T04:41:55;71.40;;;35.25;;
75892;SDS011;64572;50.950;3.676;2022-12-01T04:44:21;72.00;;;33.97;;
75892;SDS011;64572;50.950;3.676;2022-12-01T04:46:46;72.20;;;34.40;;
75892;SDS011;64572;50.950;3.676;2022-12-01T04:49:12;83.00;;;35.65;;
75892;SDS011;64572;50.950;3.676;2022-12-01T04:51:38;66.22;;;31.38;;
75892;SDS011;64572;50.950;3.676;2022-12-01T04:54:03;67.80;;;30.60;;
75892;SDS011;64572;50.950;3.676;2022-12-01T04:56:30;70.00;;;31.85;;
75892;SDS011;64572;50.950;3.676;2022-12-01T04:58:56;73.80;;;33.50;;
75892;SDS011;64572;50.950;3.676;2022-12-01T05:01:23;76.00;;;34.05;;
75892;SDS011;64572;50.950;3.676;2022-12-01T05:03:49;72.95;;;35.17;;
75892;SDS011;64572;50.950;3.676;2022-12-01T05:06:16;73.78;;;35.13;;
75892;SDS011;64572;50.950;3.676;2022-12-01T05:08:49;82.10;;;35.05;;
75892;SDS011;64572;50.950;3.676;2022-12-01T05:11:17;73.63;;;35.42;;
75892;SDS011;64572;50.950;3.676;2022-12-01T05:13:44;72.93;;;33.70;;
75892;SDS011;64572;50.950;3.676;2022-12-01T05:16:21;73.25;;;34.67;;
75892;SDS011;64572;50.950;3.676;2022-12-01T05:19:00;69.00;;;32.58;;
75892;SDS011;64572;50.950;3.676;2022-12-01T05:21:46;66.32;;;31.73;;
75892;SDS011;64572;50.950;3.676;2022-12-01T05:24:13;72.03;;;33.55;;
75892;SDS011;64572;50.950;3.676;2022-12-01T05:26:40;76.55;;;35.35;;
75892;SDS011;64572;50.950;3.676;2022-12-01T05:29:07;80.40;;;35.95;;
75892;SDS011;64572;50.950;3.676;2022-12-01T05:31:33;79.30;;;35.88;;
75892;SDS011;64572;50.950;3.676;2022-12-01T05:33:59;78.10;;;34.88;;
75892;SDS011;64572;50.950;3.676;2022-12-01T05:36:25;69.70;;;32.47;;
75892;SDS011;64572;50.950;3.676;2022-12-01T05:38:50;60.92;;;28.10;;
75892;SDS011;64572;50.950;3.676;2022-12-01T05:41:16;52.05;;;27.13;;
75892;SDS011;64572;50.950;3.676;2022-12-01T05:43:42;61.25;;;29.05;;
75892;SDS011;64572;50.950;3.676;2022-12-01T05:46:08;53.80;;;26.92;;
75892;SDS011;64572;50.950;3.676;2022-12-01T05:48:33;71.28;;;31.67;;
75892;SDS011;64572;50.950;3.676;2022-12-01T05:50:59;68.05;;;31.05;;
75892;SDS011;64572;50.950;3.676;2022-12-01T05:53:31;69.97;;;30.55;;
75892;SDS011;64572;50.950;3.676;2022-12-01T05:55:56;61.58;;;28.80;;
75892;SDS011;64572;50.950;3.676;2022-12-01T05:58:22;61.30;;;28.50;;
75892;SDS011;64572;50.950;3.676;2022-12-01T06:00:47;60.13;;;29.50;;
75892;SDS011;64572;50.950;3.676;2022-12-01T06:03:13;69.03;;;31.92;;
75892;SDS011;64572;50.950;3.676;2022-12-01T06:05:39;81.68;;;34.15;;
75892;SDS011;64572;50.950;3.676;2022-12-01T06:08:05;66.00;;;30.25;;
75892;SDS011;64572;50.950;3.676;2022-12-01T06:10:31;59.33;;;27.70;;
75892;SDS011;64572;50.950;3.676;2022-12-01T06:12:56;72.95;;;31.13;;
75892;SDS011;64572;50.950;3.676;2022-12-01T06:15:22;69.95;;;30.83;;
75892;SDS011;64572;50.950;3.676;2022-12-01T06:17:48;75.38;;;32.28;;
75892;SDS011;64572;50.950;3.676;2022-12-01T06:20:13;66.97;;;30.42;;
75892;SDS011;64572;50.950;3.676;2022-12-01T06:22:39;78.70;;;32.65;;
75892;SDS011;64572;50.950;3.676;2022-12-01T06:25:05;70.18;;;31.42;;
75892;SDS011;64572;50.950;3.676;2022-12-01T06:27:31;62.78;;;29.52;;
75892;SDS011;64572;50.950;3.676;2022-12-01T06:29:56;69.65;;;32.17;;
75892;SDS011;64572;50.950;3.676;2022-12-01T06:32:22;64.40;;;31.38;;
75892;SDS011;64572;50.950;3.676;2022-12-01T06:34:48;69.47;;;31.52;;
75892;SDS011;64572;50.950;3.676;2022-12-01T06:37:13;73.50;;;35.33;;
75892;SDS011;64572;50.950;3.676;2022-12-01T06:39:39;64.93;;;30.92;;
75892;SDS011;64572;50.950;3.676;2022-12-01T06:42:06;66.57;;;33.33;;
75892;SDS011;64572;50.950;3.676;2022-12-01T06:44:31;66.95;;;31.75;;
75892;SDS011;64572;50.950;3.676;2022-12-01T06:46:57;65.50;;;32.30;;
75892;SDS011;64572;50.950;3.676;2022-12-01T06:49:22;64.75;;;31.08;;
75892;SDS011;64572;50.950;3.676;2022-12-01T06:51:48;65.97;;;31.67;;
75892;SDS011;64572;50.950;3.676;2022-12-01T06:54:14;69.20;;;31.85;;
75892;SDS011;64572;50.950;3.676;2022-12-01T06:56:41;67.45;;;31.55;;
75892;SDS011;64572;50.950;3.676;2022-12-01T06:59:08;64.35;;;30.35;;
75892;SDS011;64572;50.950;3.676;2022-12-01T07:01:34;69.93;;;33.08;;
75892;SDS011;64572;50.950;3.676;2022-12-01T07:04:00;66.07;;;31.33;;
75892;SDS011;64572;50.950;3.676;2022-12-01T07:06:25;72.57;;;33.85;;
75892;SDS011;64572;50.950;3.676;2022-12-01T07:08:53;77.60;;;33.55;;
75892;SDS011;64572;50.950;3.676;2022-12-01T07:11:19;76.22;;;34.38;;
75892;SDS011;64572;50.950;3.676;2022-12-01T07:13:45;74.97;;;32.28;;
75892;SDS011;64572;50.950;3.676;2022-12-01T07:16:10;64.47;;;30.98;;
75892;SDS011;64572;50.950;3.676;2022-12-01T07:18:36;71.43;;;33.53;;
75892;SDS011;64572;50.950;3.676;2022-12-01T07:21:12;73.35;;;32.72;;
75892;SDS011;64572;50.950;3.676;2022-12-01T07:23:38;74.90;;;34.22;;
75892;SDS011;64572;50.950;3.676;2022-12-01T07:26:11;73.55;;;34.33;;
75892;SDS011;64572;50.950;3.676;2022-12-01T07:28:38;80.68;;;35.80;;
75892;SDS011;64572;50.950;3.676;2022-12-01T07:31:05;77.75;;;34.53;;
75892;SDS011;64572;50.950;3.676;2022-12-01T07:33:33;76.72;;;31.73;;
75892;SDS011;64572;50.950;3.676;2022-12-01T07:36:00;85.15;;;36.90;;
75892;SDS011;64572;50.950;3.676;2022-12-01T07:38:27;80.90;;;36.53;;
75892;SDS011;64572;50.950;3.676;2022-12-01T07:40:53;81.47;;;36.88;;
75892;SDS011;64572;50.950;3.676;2022-12-01T07:43:19;82.03;;;36.53;;
75892;SDS011;64572;50.950;3.676;2022-12-01T07:45:45;90.07;;;38.75;;
75892;SDS011;64572;50.950;3.676;2022-12-01T07:48:10;87.78;;;38.88;;
75892;SDS011;64572;50.950;3.676;2022-12-01T07:50:36;91.93;;;39.78;;
75892;SDS011;64572;50.950;3.676;2022-12-01T07:53:02;92.50;;;39.80;;
75892;SDS011;64572;50.950;3.676;2022-12-01T07:55:27;91.35;;;38.72;;
75892;SDS011;64572;50.950;3.676;2022-12-01T07:57:53;84.32;;;37.35;;
75892;SDS011;64572;50.950;3.676;2022-12-01T08:00:19;90.72;;;38.30;;
75892;SDS011;64572;50.950;3.676;2022-12-01T08:02:46;87.55;;;38.90;;
75892;SDS011;64572;50.950;3.676;2022-12-01T08:05:12;88.85;;;37.33;;
75892;SDS011;64572;50.950;3.676;2022-12-01T08:07:38;85.68;;;36.72;;
75892;SDS011;64572;50.950;3.676;2022-12-01T08:10:04;88.25;;;38.45;;
75892;SDS011;64572;50.950;3.676;2022-12-01T08:12:30;93.00;;;39.42;;
75892;SDS011;64572;50.950;3.676;2022-12-01T08:14:56;90.20;;;38.42;;
75892;SDS011;64572;50.950;3.676;2022-12-01T08:17:21;85.10;;;37.78;;
75892;SDS011;64572;50.950;3.676;2022-12-01T08:19:47;83.05;;;36.85;;
75892;SDS011;64572;50.950;3.676;2022-12-01T08:22:12;82.55;;;37.78;;
75892;SDS011;64572;50.950;3.676;2022-12-01T08:24:38;82.57;;;37.13;;
75892;SDS011;64572;50.950;3.676;2022-12-01T08:27:04;80.00;;;37.05;;
75892;SDS011;64572;50.950;3.676;2022-12-01T08:29:29;83.25;;;36.78;;
75892;SDS011;64572;50.950;3.676;2022-12-01T08:31:58;80.03;;;36.00;;
75892;SDS011;64572;50.950;3.676;2022-12-01T08:34:25;73.60;;;34.72;;
75892;SDS011;64572;50.950;3.676;2022-12-01T08:36:50;84.03;;;37.22;;
75892;SDS011;64572;50.950;3.676;2022-12-01T08:39:16;78.18;;;36.35;;
75892;SDS011;64572;50.950;3.676;2022-12-01T08:41:41;82.38;;;37.35;;
75892;SDS011;64572;50.950;3.676;2022-12-01T08:44:08;76.88;;;34.33;;
75892;SDS011;64572;50.950;3.676;2022-12-01T08:46:34;79.97;;;35.65;;
75892;SDS011;64572;50.950;3.676;2022-12-01T08:49:02;77.80;;;36.15;;
75892;SDS011;64572;50.950;3.676;2022-12-01T08:51:29;77.97;;;36.60;;
75892;SDS011;64572;50.950;3.676;2022-12-01T08:53:56;74.55;;;35.03;;
75892;SDS011;64572;50.950;3.676;2022-12-01T08:56:32;80.63;;;36.40;;
75892;SDS011;64572;50.950;3.676;2022-12-01T08:59:00;83.45;;;38.00;;
75892;SDS011;64572;50.950;3.676;2022-12-01T09:01:26;83.30;;;37.45;;
75892;SDS011;64572;50.950;3.676;2022-12-01T09:03:52;83.82;;;38.45;;
75892;SDS011;64572;50.950;3.676;2022-12-01T09:06:42;85.20;;;38.50;;
75892;SDS011;64572;50.950;3.676;2022-12-01T09:09:10;83.75;;;38.13;;
75892;SDS011;64572;50.950;3.676;2022-12-01T09:11:37;83.20;;;37.58;;
75892;SDS011;64572;50.950;3.676;2022-12-01T09:14:04;79.72;;;37.85;;
75892;SDS011;64572;50.950;3.676;2022-12-01T09:16:29;79.82;;;37.58;;
75892;SDS011;64572;50.950;3.676;2022-12-01T09:18:55;83.65;;;37.25;;
75892;SDS011;64572;50.950;3.676;2022-12-01T09:21:22;72.20;;;36.45;;
75892;SDS011;64572;50.950;3.676;2022-12-01T09:23:49;77.28;;;36.95;;
75892;SDS011;64572;50.950;3.676;2022-12-01T09:26:16;74.70;;;36.45;;
75892;SDS011;64572;50.950;3.676;2022-12-01T09:28:48;78.13;;;38.15;;
75892;SDS011;64572;50.950;3.676;2022-12-01T09:31:17;84.43;;;38.75;;
75892;SDS011;64572;50.950;3.676;2022-12-01T09:33:44;79.75;;;36.22;;
75892;SDS011;64572;50.950;3.676;2022-12-01T09:36:10;79.30;;;37.45;;
75892;SDS011;64572;50.950;3.676;2022-12-01T09:38:37;72.03;;;35.25;;
75892;SDS011;64572;50.950;3.676;2022-12-01T09:41:04;68.97;;;34.17;;
75892;SDS011;64572;50.950;3.676;2022-12-01T09:43:40;62.03;;;31.88;;
75892;SDS011;64572;50.950;3.676;2022-12-01T09:46:12;66.15;;;33.72;;
75892;SDS011;64572;50.950;3.676;2022-12-01T09:48:45;64.38;;;31.75;;
75892;SDS011;64572;50.950;3.676;2022-12-01T09:53:42;51.15;;;25.55;;
75892;SDS011;64572;50.950;3.676;2022-12-01T09:56:30;50.67;;;25.50;;
75892;SDS011;64572;50.950;3.676;2022-12-01T09:59:05;47.00;;;24.45;;
75892;SDS011;64572;50.950;3.676;2022-12-01T10:01:33;44.03;;;25.23;;
75892;SDS011;64572;50.950;3.676;2022-12-01T10:04:09;46.15;;;25.52;;
75892;SDS011;64572;50.950;3.676;2022-12-01T10:06:50;48.92;;;25.50;;
75892;SDS011;64572;50.950;3.676;2022-12-01T10:09:41;43.55;;;22.63;;
75892;SDS011;64572;50.950;3.676;2022-12-01T10:12:31;49.25;;;24.75;;
75892;SDS011;64572;50.950;3.676;2022-12-01T10:15:12;50.78;;;25.50;;
75892;SDS011;64572;50.950;3.676;2022-12-01T10:21:07;46.78;;;26.65;;
75892;SDS011;64572;50.950;3.676;2022-12-01T10:23:56;47.40;;;23.80;;
75892;SDS011;64572;50.950;3.676;2022-12-01T10:32:23;49.28;;;26.10;;
75892;SDS011;64572;50.950;3.676;2022-12-01T10:35:14;51.22;;;25.45;;
75892;SDS011;64572;50.950;3.676;2022-12-01T10:37:41;53.45;;;25.92;;
75892;SDS011;64572;50.950;3.676;2022-12-01T10:40:12;48.70;;;25.25;;
75892;SDS011;64572;50.950;3.676;2022-12-01T10:42:44;52.90;;;26.05;;
75892;SDS011;64572;50.950;3.676;2022-12-01T10:45:23;52.10;;;26.17;;
75892;SDS011;64572;50.950;3.676;2022-12-01T10:50:39;63.00;;;31.77;;
75892;SDS011;64572;50.950;3.676;2022-12-01T10:53:05;60.17;;;30.17;;
75892;SDS011;64572;50.950;3.676;2022-12-01T10:55:35;58.53;;;30.13;;
75892;SDS011;64572;50.950;3.676;2022-12-01T10:58:12;79.03;;;38.20;;
75892;SDS011;64572;50.950;3.676;2022-12-01T11:00:41;74.07;;;37.63;;
75892;SDS011;64572;50.950;3.676;2022-12-01T11:03:18;68.35;;;33.72;;
75892;SDS011;64572;50.950;3.676;2022-12-01T11:05:49;64.13;;;33.35;;
75892;SDS011;64572;50.950;3.676;2022-12-01T11:08:20;61.35;;;29.63;;
75892;SDS011;64572;50.950;3.676;2022-12-01T11:11:02;62.72;;;28.95;;
75892;SDS011;64572;50.950;3.676;2022-12-01T11:13:30;61.00;;;29.00;;
75892;SDS011;64572;50.950;3.676;2022-12-01T11:15:59;57.53;;;29.88;;
75892;SDS011;64572;50.950;3.676;2022-12-01T11:23:47;63.22;;;31.65;;
75892;SDS011;64572;50.950;3.676;2022-12-01T11:26:18;61.58;;;31.17;;
75892;SDS011;64572;50.950;3.676;2022-12-01T11:28:50;58.60;;;28.58;;
75892;SDS011;64572;50.950;3.676;2022-12-01T11:31:22;61.15;;;28.42;;
75892;SDS011;64572;50.950;3.676;2022-12-01T11:34:27;63.88;;;31.42;;
75892;SDS011;64572;50.950;3.676;2022-12-01T11:36:59;65.23;;;34.90;;
75892;SDS011;64572;50.950;3.676;2022-12-01T11:39:32;65.32;;;34.03;;
75892;SDS011;64572;50.950;3.676;2022-12-01T11:42:02;70.20;;;38.17;;
75892;SDS011;64572;50.950;3.676;2022-12-01T11:44:30;75.57;;;42.05;;
75892;SDS011;64572;50.950;3.676;2022-12-01T11:47:10;71.13;;;39.00;;
75892;SDS011;64572;50.950;3.676;2022-12-01T11:49:42;65.90;;;35.78;;
75892;SDS011;64572;50.950;3.676;2022-12-01T11:52:24;65.90;;;35.72;;
75892;SDS011;64572;50.950;3.676;2022-12-01T11:55:10;66.97;;;36.70;;
75892;SDS011;64572;50.950;3.676;2022-12-01T11:57:45;67.45;;;34.97;;
75892;SDS011;64572;50.950;3.676;2022-12-01T12:00:15;75.53;;;36.10;;
75892;SDS011;64572;50.950;3.676;2022-12-01T12:11:09;62.03;;;32.95;;
75892;SDS011;64572;50.950;3.676;2022-12-01T12:19:28;47.95;;;27.30;;
75892;SDS011;64572;50.950;3.676;2022-12-01T12:25:09;50.70;;;28.88;;
75892;SDS011;64572;50.950;3.676;2022-12-01T12:41:51;51.63;;;26.83;;
75892;SDS011;64572;50.950;3.676;2022-12-01T12:47:13;54.28;;;30.13;;
75892;SDS011;64572;50.950;3.676;2022-12-01T12:49:58;60.05;;;32.13;;
75892;SDS011;64572;50.950;3.676;2022-12-01T12:55:03;59.53;;;34.05;;
75892;SDS011;64572;50.950;3.676;2022-12-01T12:57:40;52.85;;;30.00;;
75892;SDS011;64572;50.950;3.676;2022-12-01T13:00:17;52.05;;;31.80;;
75892;SDS011;64572;50.950;3.676;2022-12-01T13:02:49;45.85;;;27.95;;
75892;SDS011;64572;50.950;3.676;2022-12-01T13:05:23;41.30;;;26.23;;
75892;SDS011;64572;50.950;3.676;2022-12-01T13:13:34;45.10;;;28.58;;
75892;SDS011;64572;50.950;3.676;2022-12-01T13:16:05;44.40;;;28.10;;
75892;SDS011;64572;50.950;3.676;2022-12-01T13:18:41;45.65;;;30.58;;
75892;SDS011;64572;50.950;3.676;2022-12-01T13:21:18;46.28;;;31.52;;
75892;SDS011;64572;50.950;3.676;2022-12-01T13:23:47;48.58;;;31.48;;
75892;SDS011;64572;50.950;3.676;2022-12-01T13:26:14;53.92;;;33.55;;
75892;SDS011;64572;50.950;3.676;2022-12-01T13:28:47;55.25;;;33.63;;
75892;SDS011;64572;50.950;3.676;2022-12-01T13:31:17;52.78;;;32.58;;
75892;SDS011;64572;50.950;3.676;2022-12-01T13:33:58;57.15;;;35.67;;
75892;SDS011;64572;50.950;3.676;2022-12-01T13:36:26;58.13;;;33.70;;
75892;SDS011;64572;50.950;3.676;2022-12-01T13:39:35;58.13;;;33.88;;
75892;SDS011;64572;50.950;3.676;2022-12-01T13:41:44;53.03;;;31.45;;
75892;SDS011;64572;50.950;3.676;2022-12-01T13:44:26;55.50;;;33.05;;
75892;SDS011;64572;50.950;3.676;2022-12-01T13:49:37;54.28;;;30.27;;
75892;SDS011;64572;50.950;3.676;2022-12-01T13:57:27;52.88;;;30.20;;
75892;SDS011;64572;50.950;3.676;2022-12-01T14:02:23;53.92;;;29.45;;
75892;SDS011;64572;50.950;3.676;2022-12-01T14:04:52;54.28;;;30.52;;
75892;SDS011;64572;50.950;3.676;2022-12-01T15:48:15;53.38;;;24.05;;
75892;SDS011;64572;50.950;3.676;2022-12-01T15:57:25;59.97;;;29.42;;
75892;SDS011;64572;50.950;3.676;2022-12-01T15:59:55;59.03;;;26.63;;
75892;SDS011;64572;50.950;3.676;2022-12-01T16:02:23;63.97;;;33.20;;
75892;SDS011;64572;50.950;3.676;2022-12-01T16:04:58;55.33;;;26.75;;
75892;SDS011;64572;50.950;3.676;2022-12-01T16:07:34;56.58;;;27.30;;
75892;SDS011;64572;50.950;3.676;2022-12-01T16:10:01;60.77;;;26.47;;
75892;SDS011;64572;50.950;3.676;2022-12-01T16:12:31;64.95;;;27.40;;
75892;SDS011;64572;50.950;3.676;2022-12-01T16:17:24;59.80;;;26.35;;
75892;SDS011;64572;50.950;3.676;2022-12-01T16:23:09;61.03;;;27.63;;
75892;SDS011;64572;50.950;3.676;2022-12-01T16:28:20;58.92;;;26.33;;
75892;SDS011;64572;50.950;3.676;2022-12-01T16:30:49;59.22;;;26.17;;
75892;SDS011;64572;50.950;3.676;2022-12-01T16:33:17;181.75;;;68.03;;
75892;SDS011;64572;50.950;3.676;2022-12-01T16:35:46;361.60;;;132.18;;
75892;SDS011;64572;50.950;3.676;2022-12-01T16:38:13;186.98;;;68.97;;
75892;SDS011;64572;50.950;3.676;2022-12-01T16:40:44;91.07;;;42.00;;
75892;SDS011;64572;50.950;3.676;2022-12-01T16:43:19;64.25;;;32.55;;
75892;SDS011;64572;50.950;3.676;2022-12-01T16:45:48;70.68;;;32.08;;
75892;SDS011;64572;50.950;3.676;2022-12-01T16:48:17;67.70;;;29.90;;
75892;SDS011;64572;50.950;3.676;2022-12-01T16:50:44;67.00;;;33.42;;
75892;SDS011;64572;50.950;3.676;2022-12-01T16:53:11;75.15;;;41.50;;
75892;SDS011;64572;50.950;3.676;2022-12-01T16:58:19;65.05;;;30.02;;
75892;SDS011;64572;50.950;3.676;2022-12-01T17:00:45;67.13;;;31.38;;
75892;SDS011;64572;50.950;3.676;2022-12-01T17:03:16;72.38;;;33.08;;
75892;SDS011;64572;50.950;3.676;2022-12-01T17:05:44;58.58;;;28.45;;
75892;SDS011;64572;50.950;3.676;2022-12-01T17:08:10;70.55;;;29.73;;
75892;SDS011;64572;50.950;3.676;2022-12-01T17:10:42;68.35;;;31.58;;
75892;SDS011;64572;50.950;3.676;2022-12-01T17:13:09;71.78;;;30.70;;
75892;SDS011;64572;50.950;3.676;2022-12-01T17:15:39;67.45;;;29.50;;
75892;SDS011;64572;50.950;3.676;2022-12-01T17:18:11;71.53;;;31.20;;
75892;SDS011;64572;50.950;3.676;2022-12-01T17:20:38;72.90;;;30.95;;
75892;SDS011;64572;50.950;3.676;2022-12-01T17:23:04;75.53;;;29.45;;
75892;SDS011;64572;50.950;3.676;2022-12-01T17:25:30;74.15;;;29.92;;
75892;SDS011;64572;50.950;3.676;2022-12-01T17:27:56;74.85;;;30.75;;
75892;SDS011;64572;50.950;3.676;2022-12-01T17:30:21;68.28;;;30.13;;
75892;SDS011;64572;50.950;3.676;2022-12-01T17:32:47;78.78;;;29.85;;
75892;SDS011;64572;50.950;3.676;2022-12-01T17:35:13;71.65;;;27.95;;
75892;SDS011;64572;50.950;3.676;2022-12-01T17:37:39;79.22;;;31.33;;
75892;SDS011;64572;50.950;3.676;2022-12-01T17:40:05;73.72;;;31.02;;
75892;SDS011;64572;50.950;3.676;2022-12-01T17:42:32;79.20;;;32.97;;
75892;SDS011;64572;50.950;3.676;2022-12-01T17:44:59;83.78;;;34.85;;
75892;SDS011;64572;50.950;3.676;2022-12-01T17:47:25;83.07;;;37.17;;
75892;SDS011;64572;50.950;3.676;2022-12-01T17:49:51;79.45;;;34.90;;
75892;SDS011;64572;50.950;3.676;2022-12-01T17:52:17;85.80;;;36.58;;
75892;SDS011;64572;50.950;3.676;2022-12-01T17:54:43;76.45;;;32.08;;
75892;SDS011;64572;50.950;3.676;2022-12-01T17:57:09;82.25;;;33.55;;
75892;SDS011;64572;50.950;3.676;2022-12-01T17:59:35;78.85;;;34.13;;
75892;SDS011;64572;50.950;3.676;2022-12-01T18:02:01;80.15;;;34.67;;
75892;SDS011;64572;50.950;3.676;2022-12-01T18:04:31;76.43;;;33.42;;
75892;SDS011;64572;50.950;3.676;2022-12-01T18:06:57;65.85;;;28.58;;
75892;SDS011;64572;50.950;3.676;2022-12-01T18:09:24;81.78;;;33.25;;
75892;SDS011;64572;50.950;3.676;2022-12-01T18:11:52;77.40;;;33.22;;
75892;SDS011;64572;50.950;3.676;2022-12-01T18:14:20;74.72;;;32.83;;